createdAt,value
2024-01-19T00:00:06.682Z,-3.42
2024-01-19T00:02:34.041Z,-3.32
2024-01-19T00:05:02.049Z,-3.27
2024-01-19T00:07:29.509Z,-3.22
2024-01-19T00:09:57.212Z,-3.27
2024-01-19T00:12:24.660Z,-3.32
2024-01-19T00:14:52.120Z,-3.34
2024-01-19T00:17:19.585Z,-3.34
2024-01-19T00:19:47.022Z,-3.37
2024-01-19T00:22:14.461Z,-3.28
2024-01-19T00:24:41.894Z,-3.31
2024-01-19T00:27:09.277Z,-3.27
2024-01-19T00:29:36.717Z,-3.20
2024-01-19T00:32:04.284Z,-3.35
2024-01-19T00:34:31.731Z,-3.66
2024-01-19T00:36:59.077Z,-3.47
2024-01-19T00:39:26.512Z,-3.49
2024-01-19T00:41:54.049Z,-3.35
2024-01-19T00:44:22.858Z,-3.20
2024-01-19T00:46:51.220Z,-3.31
2024-01-19T00:49:19.411Z,-3.28
2024-01-19T00:51:46.957Z,-3.18
2024-01-19T00:54:15.642Z,-3.41
2024-01-19T00:56:43.134Z,-3.31
2024-01-19T00:59:10.734Z,-3.29
2024-01-19T01:01:38.202Z,-3.26
2024-01-19T01:04:07.192Z,-3.33
2024-01-19T01:06:34.713Z,-3.18
2024-01-19T01:09:02.314Z,-3.08
2024-01-19T01:11:29.973Z,-2.88
2024-01-19T01:13:57.581Z,-2.91
2024-01-19T01:16:25.157Z,-3.09
2024-01-19T01:18:52.584Z,-2.90
2024-01-19T01:21:19.971Z,-2.91
2024-01-19T01:23:48.595Z,-2.98
2024-01-19T01:26:16.100Z,-2.98
2024-01-19T01:28:43.511Z,-2.85
2024-01-19T01:31:11.370Z,-2.89
2024-01-19T01:33:38.971Z,-2.95
2024-01-19T01:36:06.980Z,-2.89
2024-01-19T01:38:34.675Z,-2.89
2024-01-19T01:41:02.191Z,-3.08
2024-01-19T01:43:29.892Z,-3.27
2024-01-19T01:45:57.351Z,-3.02
2024-01-19T01:48:27.739Z,-3.05
2024-01-19T01:50:57.399Z,-3.04
2024-01-19T01:53:25.813Z,-3.04
2024-01-19T01:55:54.110Z,-3.07
2024-01-19T01:58:22.650Z,-3.22
2024-01-19T02:00:51.412Z,-3.06
2024-01-19T02:03:19.101Z,-3.12
2024-01-19T02:05:46.975Z,-3.09
2024-01-19T02:08:14.797Z,-3.01
2024-01-19T02:10:42.433Z,-3.20
2024-01-19T02:13:09.991Z,-3.15
2024-01-19T02:15:39.202Z,-3.15
2024-01-19T02:18:07.282Z,-3.22
2024-01-19T02:20:34.916Z,-3.25
2024-01-19T02:23:06.235Z,-3.14
2024-01-19T02:25:33.780Z,-3.15
2024-01-19T02:28:01.677Z,-3.36
2024-01-19T02:30:29.581Z,-3.13
2024-01-19T02:32:57.472Z,-3.21
2024-01-19T02:35:25.204Z,-3.13
2024-01-19T02:37:53.206Z,-3.44
2024-01-19T02:40:20.614Z,-3.38
2024-01-19T02:42:48.021Z,-3.35
2024-01-19T02:45:15.813Z,-3.31
2024-01-19T02:47:43.273Z,-3.04
2024-01-19T02:50:11.245Z,-3.19
2024-01-19T02:52:38.826Z,-2.97
2024-01-19T02:55:07.497Z,-3.18
2024-01-19T02:57:34.951Z,-3.09
2024-01-19T03:00:02.420Z,-2.97
2024-01-19T03:02:29.860Z,-3.10
2024-01-19T03:04:57.427Z,-2.98
2024-01-19T03:07:24.806Z,-3.06
2024-01-19T03:09:52.156Z,-3.16
2024-01-19T03:12:20.004Z,-3.17
2024-01-19T03:14:47.440Z,-3.11
2024-01-19T03:17:15.390Z,-3.08
2024-01-19T03:19:42.782Z,-3.00
2024-01-19T03:22:10.328Z,-3.07
2024-01-19T03:24:37.739Z,-3.09
2024-01-19T03:27:05.461Z,-3.21
2024-01-19T03:29:32.842Z,-3.06
2024-01-19T03:32:00.227Z,-3.04
2024-01-19T03:34:27.652Z,-3.09
2024-01-19T03:36:55.111Z,-3.23
2024-01-19T03:39:24.676Z,-2.87
2024-01-19T03:41:54.687Z,-2.73
2024-01-19T03:44:22.103Z,-2.94
2024-01-19T03:46:49.446Z,-2.88
2024-01-19T03:49:16.908Z,-2.81
2024-01-19T03:52:08.036Z,-2.76
2024-01-19T03:54:38.021Z,-2.77
2024-01-19T03:57:09.279Z,-3.12
2024-01-19T03:59:36.611Z,-2.72
2024-01-19T04:02:06.232Z,-2.59
2024-01-19T04:04:34.229Z,-2.51
2024-01-19T04:07:01.884Z,-2.40
2024-01-19T04:09:29.384Z,-2.58
2024-01-19T04:11:57.404Z,-2.27
2024-01-19T04:14:25.087Z,-2.34
2024-01-19T04:16:52.511Z,-2.33
2024-01-19T04:19:20.036Z,-2.33
2024-01-19T04:21:47.524Z,-2.32
2024-01-19T04:24:15.415Z,-2.19
2024-01-19T04:26:42.844Z,-2.87
2024-01-19T04:29:11.354Z,-2.31
2024-01-19T04:31:38.877Z,-2.71
2024-01-19T04:34:06.493Z,-2.47
2024-01-19T04:36:33.956Z,-2.26
2024-01-19T04:39:01.438Z,-2.37
2024-01-19T04:41:28.894Z,-2.25
2024-01-19T04:43:56.700Z,-2.59
2024-01-19T04:46:24.161Z,-2.27
2024-01-19T04:48:51.589Z,-2.19
2024-01-19T04:51:18.956Z,-2.31
2024-01-19T04:53:46.403Z,-2.18
2024-01-19T04:56:13.894Z,-2.53
2024-01-19T04:58:41.873Z,-2.64
2024-01-19T05:01:09.906Z,-2.46
2024-01-19T05:03:37.628Z,-2.22
2024-01-19T05:06:05.488Z,-2.25
2024-01-19T05:08:32.973Z,-2.20
2024-01-19T05:11:00.323Z,-2.08
2024-01-19T05:13:27.745Z,-2.09
2024-01-19T05:15:55.117Z,-2.07
2024-01-19T05:18:22.833Z,-2.34
2024-01-19T05:20:50.998Z,-2.27
2024-01-19T05:23:18.511Z,-2.07
2024-01-19T05:25:46.154Z,-2.13
2024-01-19T05:28:13.510Z,-2.08
2024-01-19T05:30:40.917Z,-2.13
2024-01-19T05:33:08.378Z,-2.29
2024-01-19T05:35:36.017Z,-2.22
2024-01-19T05:38:04.468Z,-2.42
2024-01-19T05:40:31.850Z,-2.50
2024-01-19T05:42:59.243Z,-2.06
2024-01-19T05:45:26.828Z,-2.62
2024-01-19T05:47:54.926Z,-2.42
2024-01-19T05:50:22.385Z,-2.09
2024-01-19T05:52:49.863Z,-2.09
2024-01-19T05:55:17.315Z,-2.64
2024-01-19T05:57:44.720Z,-2.21
2024-01-19T06:00:15.974Z,-2.41
2024-01-19T06:02:43.502Z,-2.00
2024-01-19T06:05:10.960Z,-2.06
2024-01-19T06:07:38.397Z,-2.12
2024-01-19T06:10:07.776Z,-1.96
2024-01-19T06:12:35.202Z,-2.25
2024-01-19T06:15:02.742Z,-2.41
2024-01-19T06:17:30.324Z,-2.35
2024-01-19T06:19:57.870Z,-2.18
2024-01-19T06:22:25.633Z,-2.24
2024-01-19T06:24:53.089Z,-2.27
2024-01-19T06:27:23.718Z,-2.39
2024-01-19T06:29:52.643Z,-2.01
2024-01-19T06:32:20.723Z,-2.22
2024-01-19T06:34:48.282Z,-2.21
2024-01-19T06:37:15.825Z,-2.31
2024-01-19T06:39:47.315Z,-2.49
2024-01-19T06:42:15.637Z,-2.09
2024-01-19T06:44:44.786Z,-2.20
2024-01-19T06:47:12.650Z,-2.20
2024-01-19T06:49:40.735Z,-1.99
2024-01-19T06:52:08.554Z,-2.05
2024-01-19T06:54:35.908Z,-1.99
2024-01-19T06:57:03.669Z,-1.88
2024-01-19T06:59:31.096Z,-1.99
2024-01-19T07:01:58.524Z,-2.08
2024-01-19T07:04:25.880Z,-2.14
2024-01-19T07:06:53.340Z,-1.93
2024-01-19T07:09:21.431Z,-1.81
2024-01-19T07:11:49.153Z,-1.93
2024-01-19T07:14:16.612Z,-1.82
2024-01-19T07:16:45.119Z,-1.89
2024-01-19T07:19:13.012Z,-1.83
2024-01-19T07:21:41.931Z,-1.84
2024-01-19T07:24:13.503Z,-1.85
2024-01-19T07:26:42.707Z,-1.69
2024-01-19T07:29:10.771Z,-1.80
2024-01-19T07:31:38.953Z,-1.57
2024-01-19T07:34:06.723Z,-1.60
2024-01-19T07:36:34.364Z,-1.90
2024-01-19T07:39:01.924Z,-1.96
2024-01-19T07:41:29.360Z,-2.59
2024-01-19T07:43:57.067Z,-1.77
2024-01-19T07:46:24.582Z,-1.68
2024-01-19T07:48:52.252Z,-1.41
2024-01-19T07:51:21.382Z,-1.70
2024-01-19T07:53:48.963Z,-1.39
2024-01-19T07:56:16.392Z,-1.44
2024-01-19T07:58:46.835Z,-2.33
2024-01-19T08:01:14.391Z,-1.25
2024-01-19T08:03:42.378Z,-1.31
2024-01-19T08:06:09.999Z,-1.54
2024-01-19T08:08:37.518Z,-1.41
2024-01-19T08:11:05.484Z,-1.32
2024-01-19T08:13:32.899Z,-1.33
2024-01-19T08:16:00.400Z,-1.34
2024-01-19T08:18:28.037Z,-1.04
2024-01-19T08:20:55.855Z,-1.27
2024-01-19T08:23:23.344Z,-1.32
2024-01-19T08:25:50.829Z,-1.22
2024-01-19T08:28:18.238Z,-1.35
2024-01-19T08:30:45.766Z,-1.07
2024-01-19T08:33:14.524Z,-0.91
2024-01-19T08:35:42.058Z,-0.90
2024-01-19T08:38:10.541Z,-0.85
2024-01-19T08:40:40.248Z,-0.92
2024-01-19T08:43:07.634Z,-0.65
2024-01-19T08:45:35.210Z,-0.49
2024-01-19T08:48:04.304Z,-0.50
2024-01-19T08:50:31.834Z,-0.44
2024-01-19T08:53:00.804Z,-1.55
2024-01-19T08:55:28.231Z,-0.35
2024-01-19T08:57:55.617Z,-0.29
2024-01-19T09:00:23.697Z,-0.43
2024-01-19T09:02:59.839Z,-0.29
2024-01-19T09:05:31.835Z,0.27
2024-01-19T09:07:59.604Z,-0.13
2024-01-19T09:10:27.258Z,-0.06
2024-01-19T09:12:55.099Z,-0.31
2024-01-19T09:15:23.014Z,-0.73
2024-01-19T09:17:50.508Z,-0.26
2024-01-19T09:20:18.058Z,0.10
2024-01-19T09:22:45.449Z,-0.03
2024-01-19T09:25:16.344Z,0.48
2024-01-19T09:27:43.872Z,0.37
2024-01-19T09:30:11.856Z,0.05
2024-01-19T09:32:42.529Z,-0.61
2024-01-19T09:35:10.443Z,-0.30
2024-01-19T09:37:37.918Z,0.43
2024-01-19T09:40:06.034Z,0.03
2024-01-19T09:42:36.009Z,-0.04
2024-01-19T09:45:06.807Z,0.28
2024-01-19T09:48:25.070Z,0.20
2024-01-19T09:50:54.804Z,0.46
2024-01-19T09:53:36.427Z,0.65
2024-01-19T09:56:04.116Z,0.70
2024-01-19T09:58:32.365Z,0.65
2024-01-19T10:01:01.652Z,1.69
2024-01-19T10:03:31.024Z,1.11
2024-01-19T10:05:58.821Z,0.13
2024-01-19T10:08:27.157Z,1.12
2024-01-19T10:10:56.779Z,1.19
2024-01-19T10:13:24.136Z,1.54
2024-01-19T10:15:51.644Z,1.70
2024-01-19T10:18:20.832Z,0.90
2024-01-19T10:20:53.403Z,0.71
2024-01-19T10:23:24.938Z,0.70
2024-01-19T10:25:53.020Z,1.15
2024-01-19T10:28:36.739Z,0.53
2024-01-19T10:31:20.194Z,1.81
2024-01-19T10:33:59.597Z,1.31
2024-01-19T10:36:28.323Z,1.94
2024-01-19T10:39:15.942Z,2.15
2024-01-19T10:41:43.558Z,1.80
2024-01-19T10:44:18.477Z,0.54
2024-01-19T10:46:46.512Z,1.23
2024-01-19T10:49:20.515Z,1.00
2024-01-19T10:51:49.080Z,1.52
2024-01-19T10:54:26.264Z,1.55
2024-01-19T10:57:10.945Z,1.70
2024-01-19T10:59:38.566Z,1.95
2024-01-19T11:02:06.397Z,1.66
2024-01-19T11:04:40.965Z,1.61
2024-01-19T11:07:09.143Z,2.19
2024-01-19T11:09:36.818Z,2.10
2024-01-19T11:12:06.157Z,2.77
2024-01-19T11:14:36.827Z,3.03
2024-01-19T11:17:04.531Z,2.30
2024-01-19T11:19:32.881Z,2.57
2024-01-19T11:22:02.351Z,2.94
2024-01-19T11:24:38.067Z,3.26
2024-01-19T11:27:25.074Z,2.31
2024-01-19T11:29:56.646Z,3.57
2024-01-19T11:32:24.183Z,3.04
2024-01-19T11:34:52.323Z,3.24
2024-01-19T11:37:48.607Z,2.37
2024-01-19T11:40:25.939Z,3.23
2024-01-19T11:42:54.011Z,3.00
2024-01-19T11:45:30.022Z,3.12
2024-01-19T11:47:58.374Z,3.76
2024-01-19T11:50:48.669Z,2.92
2024-01-19T11:53:16.600Z,3.39
2024-01-19T11:55:47.512Z,3.51
2024-01-19T11:58:41.131Z,1.73
2024-01-19T12:01:12.067Z,2.45
2024-01-19T12:03:41.731Z,3.49
2024-01-19T12:06:10.562Z,3.49
2024-01-19T12:08:38.231Z,3.33
2024-01-19T12:11:12.554Z,3.48
2024-01-19T12:13:48.992Z,3.45
2024-01-19T12:16:24.362Z,2.89
2024-01-19T12:18:56.085Z,3.54
2024-01-19T12:21:24.548Z,4.08
2024-01-19T12:23:58.307Z,4.28
2024-01-19T12:26:27.654Z,4.07
2024-01-19T12:28:57.203Z,3.36
2024-01-19T12:31:38.673Z,4.14
2024-01-19T12:34:17.293Z,3.79
2024-01-19T12:36:44.858Z,4.35
2024-01-19T12:39:16.320Z,3.64
2024-01-19T12:41:44.718Z,2.98
2024-01-19T12:44:13.600Z,4.20
2024-01-19T12:46:50.833Z,3.66
2024-01-19T12:49:18.349Z,4.01
2024-01-19T12:51:46.734Z,4.50
2024-01-19T12:54:16.644Z,3.38
2024-01-19T12:56:44.080Z,3.74
2024-01-19T12:59:20.688Z,3.02
2024-01-19T13:01:55.672Z,3.21
2024-01-19T13:04:24.499Z,3.68
2024-01-19T13:06:54.517Z,4.33
2024-01-19T13:09:23.332Z,4.24
2024-01-19T13:11:50.876Z,4.48
2024-01-19T13:14:25.970Z,3.46
2024-01-19T13:16:57.490Z,4.06
2024-01-19T13:19:25.583Z,4.18
2024-01-19T13:21:56.104Z,3.96
2024-01-19T13:24:29.798Z,4.01
2024-01-19T13:27:04.335Z,4.02
2024-01-19T13:29:33.356Z,3.94
2024-01-19T13:32:01.560Z,3.95
2024-01-19T13:34:32.136Z,3.77
2024-01-19T13:37:00.611Z,2.34
2024-01-19T13:39:29.725Z,2.92
2024-01-19T13:41:59.303Z,3.26
2024-01-19T13:44:27.151Z,3.37
2024-01-19T13:46:54.710Z,3.23
2024-01-19T13:49:22.275Z,3.54
2024-01-19T13:51:49.921Z,3.32
2024-01-19T13:54:17.280Z,3.17
2024-01-19T13:56:44.606Z,3.05
2024-01-19T13:59:12.070Z,3.49
2024-01-19T14:01:39.708Z,3.13
2024-01-19T14:04:11.606Z,3.30
2024-01-19T14:06:39.049Z,3.63
2024-01-19T14:09:06.593Z,3.57
2024-01-19T14:11:34.763Z,3.43
2024-01-19T14:14:03.349Z,3.41
2024-01-19T14:16:31.032Z,3.10
2024-01-19T14:18:58.955Z,3.43
2024-01-19T14:21:26.511Z,2.97
2024-01-19T14:23:53.946Z,2.41
2024-01-19T14:26:21.880Z,2.89
2024-01-19T14:28:49.367Z,2.95
2024-01-19T14:31:17.529Z,2.52
2024-01-19T14:33:45.613Z,2.94
2024-01-19T14:36:13.214Z,3.07
2024-01-19T14:38:40.625Z,2.92
2024-01-19T14:41:08.226Z,2.98
2024-01-19T14:43:35.890Z,2.81
2024-01-19T14:46:03.930Z,2.92
2024-01-19T14:48:31.438Z,2.81
2024-01-19T14:50:59.060Z,2.67
2024-01-19T14:53:27.918Z,2.40
2024-01-19T14:55:55.873Z,2.88
2024-01-19T14:58:23.712Z,2.97
2024-01-19T15:00:51.175Z,3.07
2024-01-19T15:03:18.622Z,2.34
2024-01-19T15:05:45.986Z,2.84
2024-01-19T15:08:13.470Z,2.51
2024-01-19T15:10:40.956Z,2.74
2024-01-19T15:13:09.889Z,2.99
2024-01-19T15:15:38.509Z,2.65
2024-01-19T15:18:07.465Z,2.20
2024-01-19T15:20:34.838Z,2.47
2024-01-19T15:23:04.025Z,2.85
2024-01-19T15:25:31.455Z,2.69
2024-01-19T15:27:58.958Z,2.83
2024-01-19T15:30:33.388Z,2.54
2024-01-19T15:33:08.534Z,2.50
2024-01-19T15:35:35.930Z,2.37
2024-01-19T15:38:03.370Z,2.36
2024-01-19T15:40:30.696Z,2.80
2024-01-19T15:42:58.069Z,2.76
2024-01-19T15:45:27.724Z,2.68
2024-01-19T15:47:56.933Z,2.77
2024-01-19T15:50:25.143Z,2.86
2024-01-19T15:52:56.004Z,2.00
2024-01-19T15:55:24.757Z,2.35
2024-01-19T15:57:52.168Z,2.24
2024-01-19T16:00:20.020Z,2.39
2024-01-19T16:02:47.378Z,2.39
2024-01-19T16:05:16.330Z,2.42
2024-01-19T16:07:44.003Z,1.98
2024-01-19T16:10:11.635Z,2.22
2024-01-19T16:12:39.122Z,2.22
2024-01-19T16:15:07.159Z,2.20
2024-01-19T16:17:39.174Z,2.32
2024-01-19T16:20:09.877Z,2.47
2024-01-19T16:22:37.410Z,2.30
2024-01-19T16:25:07.914Z,2.19
2024-01-19T16:27:36.450Z,2.24
2024-01-19T16:30:05.032Z,2.33
2024-01-19T16:32:32.481Z,1.99
2024-01-19T16:35:00.079Z,2.32
2024-01-19T16:37:27.678Z,2.01
2024-01-19T16:39:55.073Z,2.58
2024-01-19T16:42:22.385Z,2.66
2024-01-19T16:44:49.737Z,2.54
2024-01-19T16:47:17.268Z,2.25
2024-01-19T16:49:44.699Z,2.38
2024-01-19T16:52:13.380Z,2.32
2024-01-19T16:54:44.679Z,1.91
2024-01-19T16:57:12.663Z,1.69
2024-01-19T16:59:40.170Z,2.05
2024-01-19T17:02:07.627Z,1.74
2024-01-19T17:04:38.282Z,2.12
2024-01-19T17:07:05.818Z,1.93
2024-01-19T17:09:35.854Z,2.25
2024-01-19T17:12:03.495Z,2.20
2024-01-19T17:14:34.562Z,2.22
2024-01-19T17:17:01.920Z,1.92
2024-01-19T17:19:29.908Z,1.94
2024-01-19T17:21:57.369Z,1.91
2024-01-19T17:24:25.411Z,1.40
2024-01-19T17:26:53.173Z,1.75
2024-01-19T17:29:21.025Z,1.68
2024-01-19T17:31:48.759Z,2.03
2024-01-19T17:34:16.205Z,1.70
2024-01-19T17:36:43.728Z,1.76
2024-01-19T17:39:11.281Z,1.79
2024-01-19T17:41:42.990Z,1.69
2024-01-19T17:44:11.015Z,1.53
2024-01-19T17:46:38.638Z,1.47
2024-01-19T17:49:06.175Z,1.20
2024-01-19T17:51:33.737Z,1.72
2024-01-19T17:54:01.215Z,1.09
2024-01-19T17:56:28.736Z,1.57
2024-01-19T17:58:56.231Z,1.19
2024-01-19T18:01:24.060Z,1.41
2024-01-19T18:03:51.663Z,1.26
2024-01-19T18:06:21.681Z,1.74
2024-01-19T18:08:51.174Z,1.61
2024-01-19T18:11:18.784Z,1.18
2024-01-19T18:13:46.325Z,1.40
2024-01-19T18:16:13.796Z,1.19
2024-01-19T18:18:41.415Z,0.81
2024-01-19T18:21:09.387Z,1.14
2024-01-19T18:23:36.744Z,1.16
2024-01-19T18:26:04.812Z,1.22
2024-01-19T18:28:32.426Z,1.04
2024-01-19T18:31:00.361Z,1.00
2024-01-19T18:33:27.991Z,1.11
2024-01-19T18:35:55.606Z,1.03
2024-01-19T18:38:23.015Z,1.17
2024-01-19T18:40:50.428Z,0.65
2024-01-19T18:43:17.846Z,1.05
2024-01-19T18:45:45.226Z,1.13
2024-01-19T18:48:12.766Z,0.99
2024-01-19T18:50:40.284Z,1.04
2024-01-19T18:53:09.289Z,0.46
2024-01-19T18:55:37.070Z,0.86
2024-01-19T18:58:07.503Z,0.96
2024-01-19T19:00:37.140Z,0.64
2024-01-19T19:03:06.219Z,0.84
2024-01-19T19:05:36.471Z,0.67
2024-01-19T19:08:07.753Z,0.90
2024-01-19T19:10:37.751Z,0.91
2024-01-19T19:13:07.319Z,0.78
2024-01-19T19:15:37.517Z,0.44
2024-01-19T19:18:05.819Z,0.67
2024-01-19T19:20:33.616Z,0.67
2024-01-19T19:23:02.547Z,0.37
2024-01-19T19:25:30.028Z,0.63
2024-01-19T19:27:57.897Z,0.71
2024-01-19T19:30:26.588Z,0.63
2024-01-19T19:32:54.694Z,0.39
2024-01-19T19:35:22.135Z,0.70
2024-01-19T19:37:49.640Z,0.54
2024-01-19T19:40:17.161Z,0.27
2024-01-19T19:42:44.583Z,0.56
2024-01-19T19:45:14.620Z,0.80
2024-01-19T19:47:42.490Z,0.80
2024-01-19T19:50:11.352Z,0.51
2024-01-19T19:52:39.884Z,0.42
2024-01-19T19:55:07.881Z,0.49
2024-01-19T19:57:35.264Z,0.43
2024-01-19T20:00:02.834Z,0.35
2024-01-19T20:02:30.192Z,0.70
2024-01-19T20:04:57.559Z,0.37
2024-01-19T20:07:24.958Z,0.45
2024-01-19T20:09:52.635Z,0.40
2024-01-19T20:12:20.131Z,0.61
2024-01-19T20:14:47.974Z,0.36
2024-01-19T20:17:15.685Z,0.13
2024-01-19T20:19:48.038Z,0.38
2024-01-19T20:22:15.529Z,0.14
2024-01-19T20:24:43.253Z,0.47
2024-01-19T20:27:12.674Z,-0.12
2024-01-19T20:29:42.905Z,0.14
2024-01-19T20:32:10.959Z,0.52
2024-01-19T20:34:40.508Z,0.29
2024-01-19T20:37:08.480Z,0.41
2024-01-19T20:39:36.139Z,-0.33
2024-01-19T20:42:04.275Z,0.21
2024-01-19T20:44:31.669Z,0.45
2024-01-19T20:46:59.171Z,0.53
2024-01-19T20:49:27.022Z,0.63
2024-01-19T20:51:54.434Z,0.47
2024-01-19T20:54:25.796Z,0.25
2024-01-19T20:56:54.126Z,0.51
2024-01-19T20:59:24.097Z,0.43
2024-01-19T21:01:51.666Z,0.28
2024-01-19T21:04:19.311Z,-0.17
2024-01-19T21:06:47.005Z,0.48
2024-01-19T21:09:14.573Z,0.53
2024-01-19T21:11:42.404Z,0.46
2024-01-19T21:14:10.855Z,0.46
2024-01-19T21:16:38.592Z,0.52
2024-01-19T21:19:08.931Z,0.21
2024-01-19T21:21:37.777Z,0.87
2024-01-19T21:24:05.845Z,0.74
2024-01-19T21:26:34.613Z,0.10
2024-01-19T21:29:03.414Z,0.78
2024-01-19T21:31:30.915Z,0.35
2024-01-19T21:33:59.357Z,0.81
2024-01-19T21:36:26.868Z,0.96
2024-01-19T21:38:54.431Z,0.40
2024-01-19T21:41:22.387Z,0.25
2024-01-19T21:43:49.849Z,0.70
2024-01-19T21:46:17.411Z,0.80
2024-01-19T21:48:44.926Z,0.95
2024-01-19T21:51:12.454Z,0.78
2024-01-19T21:53:43.339Z,0.82
2024-01-19T21:56:14.452Z,0.74
2024-01-19T21:58:41.969Z,0.41
2024-01-19T22:01:17.377Z,0.71
2024-01-19T22:03:47.230Z,0.52
2024-01-19T22:06:14.801Z,0.89
2024-01-19T22:08:42.468Z,0.52
2024-01-19T22:11:10.339Z,0.76
2024-01-19T22:13:37.851Z,0.80
2024-01-19T22:16:06.173Z,0.57
2024-01-19T22:18:38.427Z,0.37
2024-01-19T22:21:07.021Z,-0.01
2024-01-19T22:23:40.020Z,0.67
2024-01-19T22:26:10.507Z,0.27
2024-01-19T22:28:38.027Z,0.63
2024-01-19T22:31:07.517Z,0.59
2024-01-19T22:33:38.175Z,0.51
2024-01-19T22:36:15.066Z,-1.67
2024-01-19T22:38:46.434Z,-1.04
2024-01-19T22:41:17.377Z,-0.80
2024-01-19T22:43:45.159Z,-1.42
2024-01-19T22:46:12.891Z,-0.98
2024-01-19T22:48:40.439Z,-0.82
2024-01-19T22:51:08.367Z,-0.47
2024-01-19T22:53:36.017Z,-0.67
2024-01-19T22:56:11.129Z,-0.73
2024-01-19T22:58:39.524Z,-0.96
2024-01-19T23:01:10.512Z,-1.06
2024-01-19T23:03:38.289Z,-1.33
2024-01-19T23:06:06.246Z,-0.70
2024-01-19T23:08:33.890Z,-0.77
2024-01-19T23:11:01.455Z,-1.00
2024-01-19T23:13:28.976Z,-0.64
2024-01-19T23:15:56.518Z,-0.44
2024-01-19T23:18:24.486Z,-0.62
2024-01-19T23:20:52.348Z,-0.58
2024-01-19T23:23:20.562Z,-0.64
2024-01-19T23:25:48.059Z,-0.74
2024-01-19T23:28:15.804Z,-0.72
2024-01-19T23:30:43.297Z,-1.05
2024-01-19T23:33:11.300Z,-0.77
2024-01-19T23:35:38.875Z,-0.91
2024-01-19T23:38:06.928Z,-1.08
2024-01-19T23:40:34.373Z,-0.63
2024-01-19T23:43:01.952Z,-1.12
2024-01-19T23:45:29.456Z,-0.49
2024-01-19T23:47:58.038Z,-1.07
2024-01-19T23:50:26.433Z,-0.30
2024-01-19T23:52:53.817Z,-0.84
2024-01-19T23:55:21.417Z,-0.83
2024-01-19T23:57:48.866Z,-0.38
